createdAt,value
2023-06-20T00:00:07.609Z,59.94
2023-06-20T00:02:34.756Z,60.02
2023-06-20T00:05:03.665Z,60.05
2023-06-20T00:07:31.028Z,60.10
2023-06-20T00:09:58.300Z,59.52
2023-06-20T00:12:25.359Z,59.09
2023-06-20T00:14:52.397Z,58.76
2023-06-20T00:17:19.467Z,58.72
2023-06-20T00:19:46.597Z,58.59
2023-06-20T00:22:13.329Z,58.69
2023-06-20T00:24:40.915Z,58.87
2023-06-20T00:27:07.838Z,59.00
2023-06-20T00:29:35.493Z,59.21
2023-06-20T00:32:02.547Z,59.32
2023-06-20T00:34:29.589Z,59.51
2023-06-20T00:36:56.535Z,59.73
2023-06-20T00:39:23.408Z,59.53
2023-06-20T00:41:50.319Z,59.53
2023-06-20T00:44:17.266Z,59.49
2023-06-20T00:46:44.108Z,59.58
2023-06-20T00:49:11.441Z,59.39
2023-06-20T00:51:38.631Z,59.27
2023-06-20T00:54:05.515Z,59.25
2023-06-20T00:56:33.021Z,59.16
2023-06-20T00:58:59.958Z,59.08
2023-06-20T01:01:32.594Z,59.19
2023-06-20T01:03:59.942Z,59.08
2023-06-20T01:07:00.623Z,58.89
2023-06-20T01:09:39.089Z,58.65
2023-06-20T01:12:14.361Z,58.71
2023-06-20T01:15:01.929Z,58.63
2023-06-20T01:17:35.642Z,58.52
2023-06-20T01:20:26.005Z,58.51
2023-06-20T01:23:11.893Z,58.79
2023-06-20T01:25:47.544Z,59.10
2023-06-20T01:28:47.048Z,59.04
2023-06-20T01:31:16.878Z,59.29
2023-06-20T01:33:57.320Z,59.40
2023-06-20T01:36:25.396Z,59.38
2023-06-20T01:38:55.423Z,59.18
2023-06-20T01:41:23.270Z,59.34
2023-06-20T01:43:51.039Z,59.64
2023-06-20T01:46:18.127Z,59.85
2023-06-20T01:48:45.241Z,60.30
2023-06-20T01:51:12.285Z,60.00
2023-06-20T01:53:39.331Z,59.89
2023-06-20T01:56:06.276Z,60.12
2023-06-20T01:58:34.240Z,60.67
2023-06-20T02:01:01.290Z,60.98
2023-06-20T02:03:28.969Z,61.02
2023-06-20T02:05:57.025Z,61.36
2023-06-20T02:08:24.897Z,61.54
2023-06-20T02:10:51.835Z,61.39
2023-06-20T02:13:21.028Z,61.22
2023-06-20T02:15:48.385Z,61.27
2023-06-20T02:18:15.456Z,61.07
2023-06-20T02:20:42.476Z,61.52
2023-06-20T02:23:10.775Z,61.71
2023-06-20T02:25:39.953Z,62.62
2023-06-20T02:28:07.509Z,63.07
2023-06-20T02:30:34.659Z,62.43
2023-06-20T02:33:01.630Z,62.43
2023-06-20T02:35:29.010Z,62.59
2023-06-20T02:37:57.243Z,62.65
2023-06-20T02:40:24.800Z,62.72
2023-06-20T02:42:53.495Z,63.46
2023-06-20T02:45:21.064Z,63.78
2023-06-20T02:48:02.537Z,63.38
2023-06-20T02:50:46.798Z,63.53
2023-06-20T02:53:32.278Z,63.78
2023-06-20T02:56:02.995Z,64.04
2023-06-20T02:58:30.859Z,63.65
2023-06-20T03:00:58.854Z,63.20
2023-06-20T03:03:27.511Z,63.51
2023-06-20T03:05:57.530Z,63.88
2023-06-20T03:08:30.926Z,63.99
2023-06-20T03:10:58.484Z,64.03
2023-06-20T03:13:25.953Z,63.83
2023-06-20T03:15:55.890Z,63.53
2023-06-20T03:18:23.630Z,63.80
2023-06-20T03:20:50.667Z,64.11
2023-06-20T03:23:17.772Z,64.22
2023-06-20T03:25:45.883Z,64.47
2023-06-20T03:28:15.412Z,64.45
2023-06-20T03:30:45.518Z,64.52
2023-06-20T03:33:12.766Z,64.41
2023-06-20T03:35:40.931Z,64.55
2023-06-20T03:38:08.333Z,64.74
2023-06-20T03:40:35.596Z,64.75
2023-06-20T03:43:03.094Z,64.71
2023-06-20T03:45:31.485Z,65.02
2023-06-20T03:47:58.449Z,65.14
2023-06-20T03:50:25.603Z,65.35
2023-06-20T03:52:53.338Z,65.23
2023-06-20T03:55:20.344Z,65.18
2023-06-20T03:57:47.632Z,65.16
2023-06-20T04:00:15.195Z,65.32
2023-06-20T04:02:42.752Z,65.23
2023-06-20T04:05:10.109Z,65.10
2023-06-20T04:07:43.372Z,65.11
2023-06-20T04:10:11.679Z,64.87
2023-06-20T04:12:40.256Z,64.60
2023-06-20T04:15:08.149Z,64.49
2023-06-20T04:17:35.023Z,64.45
2023-06-20T04:20:08.649Z,64.01
2023-06-20T04:22:35.519Z,63.79
2023-06-20T04:25:02.555Z,63.57
2023-06-20T04:27:29.810Z,63.50
2023-06-20T04:29:58.350Z,63.60
2023-06-20T04:32:26.094Z,63.23
2023-06-20T04:34:53.617Z,63.14
2023-06-20T04:37:23.029Z,63.12
2023-06-20T04:39:50.577Z,63.27
2023-06-20T04:42:18.002Z,63.33
2023-06-20T04:44:45.378Z,63.10
2023-06-20T04:47:13.653Z,63.08
2023-06-20T04:49:44.185Z,63.67
2023-06-20T04:52:11.445Z,64.24
2023-06-20T04:54:38.789Z,64.54
2023-06-20T04:57:05.836Z,64.63
2023-06-20T04:59:36.375Z,64.72
2023-06-20T05:02:06.150Z,64.61
2023-06-20T05:04:33.429Z,64.66
2023-06-20T05:07:01.394Z,64.59
2023-06-20T05:09:28.649Z,64.54
2023-06-20T05:11:59.263Z,64.04
2023-06-20T05:14:28.064Z,64.00
2023-06-20T05:16:55.222Z,63.94
2023-06-20T05:19:22.384Z,64.07
2023-06-20T05:21:49.311Z,63.85
2023-06-20T05:24:16.293Z,63.70
2023-06-20T05:26:43.423Z,63.75
2023-06-20T05:29:10.349Z,63.76
2023-06-20T05:31:42.151Z,63.78
2023-06-20T05:34:09.358Z,63.44
2023-06-20T05:36:37.149Z,63.36
2023-06-20T05:39:04.688Z,63.27
2023-06-20T05:41:31.755Z,63.06
2023-06-20T05:43:59.099Z,63.05
2023-06-20T05:46:26.243Z,62.85
2023-06-20T05:48:53.509Z,62.82
2023-06-20T05:51:20.649Z,62.56
2023-06-20T05:53:47.794Z,62.26
2023-06-20T05:56:14.737Z,62.38
2023-06-20T05:58:42.622Z,62.31
2023-06-20T06:01:11.410Z,62.40
2023-06-20T06:03:39.180Z,62.22
2023-06-20T06:06:10.398Z,62.10
2023-06-20T06:08:37.621Z,61.75
2023-06-20T06:11:04.918Z,61.44
2023-06-20T06:13:32.970Z,61.14
2023-06-20T06:16:01.348Z,61.28
2023-06-20T06:18:31.144Z,61.32
2023-06-20T06:20:58.049Z,61.27
2023-06-20T06:23:25.464Z,61.39
2023-06-20T06:25:53.025Z,61.18
2023-06-20T06:28:19.961Z,61.19
2023-06-20T06:30:47.391Z,61.33
2023-06-20T06:33:14.590Z,60.99
2023-06-20T06:35:43.473Z,60.38
2023-06-20T06:38:10.413Z,59.30
2023-06-20T06:40:37.354Z,58.40
2023-06-20T06:43:04.501Z,58.10
2023-06-20T06:45:33.396Z,57.41
2023-06-20T06:48:00.426Z,57.07
2023-06-20T06:50:27.781Z,56.66
2023-06-20T06:52:54.956Z,56.19
2023-06-20T06:55:23.329Z,56.04
2023-06-20T06:57:50.661Z,55.88
2023-06-20T07:00:18.232Z,55.75
2023-06-20T07:02:45.959Z,55.80
2023-06-20T07:05:13.143Z,55.59
2023-06-20T07:07:40.306Z,55.25
2023-06-20T07:10:08.056Z,54.43
2023-06-20T07:12:34.969Z,53.89
2023-06-20T07:15:01.954Z,53.71
2023-06-20T07:17:29.575Z,53.35
2023-06-20T07:19:56.707Z,53.18
2023-06-20T07:22:24.830Z,53.25
2023-06-20T07:24:53.909Z,53.55
2023-06-20T07:27:23.023Z,53.58
2023-06-20T07:29:49.707Z,53.94
2023-06-20T07:32:17.137Z,54.02
2023-06-20T07:34:44.267Z,54.06
2023-06-20T07:37:11.634Z,54.18
2023-06-20T07:39:43.689Z,53.75
2023-06-20T07:42:12.470Z,53.43
2023-06-20T07:44:39.729Z,53.62
2023-06-20T07:47:07.239Z,53.67
2023-06-20T07:49:34.046Z,53.90
2023-06-20T07:52:00.972Z,53.99
2023-06-20T07:54:28.323Z,54.10
2023-06-20T07:56:55.175Z,53.86
2023-06-20T07:59:22.104Z,54.09
2023-06-20T08:01:49.224Z,54.21
2023-06-20T08:04:16.510Z,54.14
2023-06-20T08:06:43.654Z,54.17
2023-06-20T08:09:10.705Z,54.41
2023-06-20T08:11:38.778Z,54.07
2023-06-20T08:14:05.733Z,54.30
2023-06-20T08:16:33.263Z,54.29
2023-06-20T08:19:00.336Z,54.00
2023-06-20T08:21:27.370Z,53.88
2023-06-20T08:23:54.551Z,53.82
2023-06-20T08:26:22.490Z,53.69
2023-06-20T08:28:49.454Z,53.74
2023-06-20T08:31:16.738Z,53.88
2023-06-20T08:33:43.582Z,53.67
2023-06-20T08:36:11.624Z,53.65
2023-06-20T08:38:39.156Z,53.69
2023-06-20T08:41:10.093Z,53.77
2023-06-20T08:43:37.059Z,53.78
2023-06-20T08:46:03.982Z,53.86
2023-06-20T08:48:31.057Z,54.21
2023-06-20T08:50:58.090Z,53.51
2023-06-20T08:53:25.739Z,53.20
2023-06-20T08:55:53.391Z,52.80
2023-06-20T08:58:22.300Z,52.54
2023-06-20T09:00:49.693Z,52.42
2023-06-20T09:03:17.222Z,52.26
2023-06-20T09:05:47.706Z,52.18
2023-06-20T09:08:17.774Z,51.40
2023-06-20T09:10:45.822Z,50.90
2023-06-20T09:13:13.797Z,50.18
2023-06-20T09:15:41.862Z,49.99
2023-06-20T09:18:12.491Z,50.02
2023-06-20T09:20:43.951Z,49.30
2023-06-20T09:23:11.046Z,49.11
2023-06-20T09:25:40.493Z,49.30
2023-06-20T09:28:14.194Z,49.23
2023-06-20T09:30:45.449Z,49.75
2023-06-20T09:33:14.232Z,49.84
2023-06-20T09:35:41.172Z,49.26
2023-06-20T09:38:08.580Z,48.95
2023-06-20T09:40:45.534Z,48.41
2023-06-20T09:43:12.686Z,48.15
2023-06-20T09:45:40.354Z,48.52
2023-06-20T09:48:10.966Z,49.28
2023-06-20T09:50:38.389Z,49.84
2023-06-20T09:53:40.587Z,49.36
2023-06-20T09:56:07.572Z,48.45
2023-06-20T09:58:35.183Z,48.72
2023-06-20T10:01:02.235Z,48.55
2023-06-20T10:03:29.664Z,48.42
2023-06-20T10:05:56.868Z,48.29
2023-06-20T10:08:23.798Z,48.34
2023-06-20T10:10:51.450Z,47.98
2023-06-20T10:13:19.963Z,47.39
2023-06-20T10:15:48.829Z,47.07
2023-06-20T10:18:30.730Z,47.41
2023-06-20T10:20:57.974Z,47.47
2023-06-20T10:23:31.930Z,47.59
2023-06-20T10:25:59.115Z,47.59
2023-06-20T10:28:26.102Z,47.30
2023-06-20T10:31:03.579Z,46.98
2023-06-20T10:33:35.684Z,46.92
2023-06-20T10:36:05.838Z,46.84
2023-06-20T10:38:45.532Z,47.31
2023-06-20T10:41:33.232Z,47.45
2023-06-20T10:44:01.372Z,47.03
2023-06-20T10:46:35.314Z,46.61
2023-06-20T10:49:05.521Z,45.97
2023-06-20T10:52:03.804Z,45.74
2023-06-20T10:54:36.683Z,45.67
2023-06-20T10:57:05.117Z,46.18
2023-06-20T10:59:32.035Z,46.30
2023-06-20T11:01:58.987Z,45.76
2023-06-20T11:04:26.097Z,45.47
2023-06-20T11:06:53.355Z,45.37
2023-06-20T11:09:21.455Z,45.73
2023-06-20T11:11:49.614Z,45.63
2023-06-20T11:14:19.112Z,45.54
2023-06-20T11:16:47.081Z,45.47
2023-06-20T11:19:31.129Z,45.02
2023-06-20T11:22:02.470Z,44.92
2023-06-20T11:24:31.229Z,44.79
2023-06-20T11:27:11.827Z,44.44
2023-06-20T11:29:38.975Z,44.56
2023-06-20T11:32:10.416Z,45.06
2023-06-20T11:34:54.535Z,45.36
2023-06-20T11:37:22.490Z,45.75
2023-06-20T11:39:49.809Z,45.77
2023-06-20T11:42:17.344Z,45.29
2023-06-20T11:44:44.313Z,45.01
2023-06-20T11:47:11.334Z,44.62
2023-06-20T11:49:39.906Z,45.02
2023-06-20T11:52:08.470Z,45.28
2023-06-20T11:54:52.344Z,44.83
2023-06-20T11:57:29.729Z,44.83
2023-06-20T11:59:59.954Z,44.93
2023-06-20T12:02:29.589Z,44.82
2023-06-20T12:04:59.670Z,44.47
2023-06-20T12:07:27.232Z,44.41
2023-06-20T12:09:54.196Z,44.36
2023-06-20T12:12:31.265Z,44.16
2023-06-20T12:14:58.429Z,44.37
2023-06-20T12:17:25.626Z,44.21
2023-06-20T12:19:53.838Z,44.33
2023-06-20T12:22:21.310Z,44.04
2023-06-20T12:24:48.383Z,43.88
2023-06-20T12:27:16.634Z,43.95
2023-06-20T12:29:43.659Z,44.09
2023-06-20T12:32:10.891Z,44.04
2023-06-20T12:34:38.812Z,44.41
2023-06-20T12:37:07.122Z,44.72
2023-06-20T12:39:35.028Z,44.39
2023-06-20T12:42:02.281Z,44.39
2023-06-20T12:44:29.321Z,44.36
2023-06-20T12:46:56.367Z,44.63
2023-06-20T12:49:23.631Z,45.01
2023-06-20T12:51:50.567Z,45.12
2023-06-20T12:54:19.374Z,45.14
2023-06-20T12:56:46.506Z,44.94
2023-06-20T12:59:13.468Z,44.82
2023-06-20T13:01:43.499Z,44.81
2023-06-20T13:04:10.922Z,44.30
2023-06-20T13:06:37.764Z,43.93
2023-06-20T13:09:06.974Z,43.84
2023-06-20T13:11:34.010Z,43.24
2023-06-20T13:14:00.851Z,43.70
2023-06-20T13:16:29.255Z,44.36
2023-06-20T13:19:01.602Z,44.13
2023-06-20T13:21:30.191Z,44.15
2023-06-20T13:24:09.091Z,44.35
2023-06-20T13:26:37.668Z,44.20
2023-06-20T13:29:04.762Z,43.74
2023-06-20T13:31:31.841Z,44.10
2023-06-20T13:33:59.244Z,44.20
2023-06-20T13:36:29.394Z,43.82
2023-06-20T13:38:57.504Z,43.60
2023-06-20T13:41:24.480Z,43.79
2023-06-20T13:43:51.714Z,44.37
2023-06-20T13:46:22.448Z,44.46
2023-06-20T13:48:51.462Z,44.20
2023-06-20T13:51:18.823Z,44.28
2023-06-20T13:53:46.282Z,44.57
2023-06-20T13:56:13.326Z,44.61
2023-06-20T13:58:40.372Z,44.68
2023-06-20T14:01:07.408Z,44.71
2023-06-20T14:03:34.678Z,44.79
2023-06-20T14:06:02.232Z,44.76
2023-06-20T14:08:29.580Z,44.92
2023-06-20T14:10:56.644Z,44.53
2023-06-20T14:13:23.626Z,44.39
2023-06-20T14:15:50.591Z,44.70
2023-06-20T14:18:17.869Z,45.09
2023-06-20T14:20:44.820Z,45.06
2023-06-20T14:23:11.786Z,45.08
2023-06-20T14:25:38.710Z,45.60
2023-06-20T14:28:05.750Z,45.95
2023-06-20T14:30:33.143Z,46.32
2023-06-20T14:33:00.423Z,46.88
2023-06-20T14:35:27.613Z,47.13
2023-06-20T14:37:54.497Z,47.02
2023-06-20T14:40:24.361Z,46.88
2023-06-20T14:42:51.721Z,47.06
2023-06-20T14:45:18.721Z,46.87
2023-06-20T14:47:46.670Z,46.68
2023-06-20T14:50:13.800Z,46.30
2023-06-20T14:52:41.966Z,46.30
2023-06-20T14:55:08.898Z,46.71
2023-06-20T14:57:35.950Z,47.11
2023-06-20T15:00:03.850Z,46.74
2023-06-20T15:02:31.554Z,46.65
2023-06-20T15:04:58.433Z,47.12
2023-06-20T15:07:25.363Z,46.72
2023-06-20T15:09:52.404Z,46.46
2023-06-20T15:12:19.350Z,45.64
2023-06-20T15:14:46.321Z,44.72
2023-06-20T15:17:13.343Z,44.67
2023-06-20T15:19:40.418Z,43.62
2023-06-20T15:22:07.347Z,42.63
2023-06-20T15:24:36.033Z,42.11
2023-06-20T15:27:04.000Z,42.23
2023-06-20T15:29:32.121Z,42.57
2023-06-20T15:31:59.378Z,42.48
2023-06-20T15:34:28.852Z,41.91
2023-06-20T15:36:55.637Z,41.60
2023-06-20T15:39:22.524Z,41.15
2023-06-20T15:41:49.660Z,40.77
2023-06-20T15:44:16.700Z,40.64
2023-06-20T15:46:53.304Z,41.46
2023-06-20T15:49:22.893Z,42.12
2023-06-20T15:51:49.820Z,42.81
2023-06-20T15:54:16.810Z,43.12
2023-06-20T15:56:43.824Z,42.64
2023-06-20T15:59:10.988Z,42.26
2023-06-20T16:01:38.255Z,42.38
2023-06-20T16:04:05.260Z,42.80
2023-06-20T16:06:34.146Z,43.54
2023-06-20T16:09:01.211Z,44.05
2023-06-20T16:11:30.193Z,44.64
2023-06-20T16:13:57.862Z,44.64
2023-06-20T16:16:25.235Z,44.49
2023-06-20T16:18:52.291Z,44.49
2023-06-20T16:21:19.405Z,44.37
2023-06-20T16:23:47.912Z,44.26
2023-06-20T16:26:15.546Z,43.56
2023-06-20T16:28:43.406Z,42.91
2023-06-20T16:31:10.623Z,41.95
2023-06-20T16:33:49.486Z,41.43
2023-06-20T16:36:18.381Z,41.62
2023-06-20T16:38:45.437Z,41.53
2023-06-20T16:41:12.471Z,41.42
2023-06-20T16:43:40.960Z,41.18
2023-06-20T16:46:09.656Z,40.89
2023-06-20T16:48:36.924Z,40.85
2023-06-20T16:51:03.932Z,41.04
2023-06-20T16:53:30.983Z,41.48
2023-06-20T16:55:57.930Z,41.45
2023-06-20T16:58:24.875Z,41.41
2023-06-20T17:00:51.956Z,40.87
2023-06-20T17:03:19.206Z,40.33
2023-06-20T17:05:46.526Z,39.85
2023-06-20T17:08:13.466Z,39.26
2023-06-20T17:10:41.747Z,38.91
2023-06-20T17:13:09.109Z,38.80
2023-06-20T17:15:35.965Z,38.88
2023-06-20T17:18:03.281Z,38.87
2023-06-20T17:20:30.873Z,39.28
2023-06-20T17:22:57.918Z,39.57
2023-06-20T17:25:24.840Z,39.97
2023-06-20T17:27:51.907Z,39.96
2023-06-20T17:30:19.246Z,39.78
2023-06-20T17:32:46.271Z,39.57
2023-06-20T17:35:13.441Z,39.57
2023-06-20T17:37:40.565Z,39.89
2023-06-20T17:40:08.459Z,40.60
2023-06-20T17:42:36.430Z,40.63
2023-06-20T17:45:04.758Z,40.75
2023-06-20T17:47:32.402Z,41.03
2023-06-20T17:49:59.722Z,41.25
2023-06-20T17:52:26.896Z,41.76
2023-06-20T17:54:54.611Z,42.00
2023-06-20T17:57:21.576Z,42.39
2023-06-20T17:59:48.439Z,42.71
2023-06-20T18:02:16.551Z,42.98
2023-06-20T18:04:43.947Z,43.33
2023-06-20T18:07:11.124Z,43.60
2023-06-20T18:09:38.043Z,43.88
2023-06-20T18:12:05.869Z,44.14
2023-06-20T18:14:33.586Z,44.41
2023-06-20T18:17:00.748Z,44.64
2023-06-20T18:19:34.595Z,44.83
2023-06-20T18:22:09.045Z,45.12
2023-06-20T18:24:36.062Z,45.29
2023-06-20T18:27:04.159Z,45.43
2023-06-20T18:29:31.105Z,45.80
2023-06-20T18:31:57.946Z,45.84
2023-06-20T18:34:25.026Z,46.01
2023-06-20T18:36:52.043Z,46.22
2023-06-20T18:39:18.989Z,46.33
2023-06-20T18:41:46.053Z,46.66
2023-06-20T18:44:19.796Z,46.87
2023-06-20T18:46:47.633Z,47.16
2023-06-20T18:49:14.554Z,47.39
2023-06-20T18:51:41.510Z,47.60
2023-06-20T18:54:09.461Z,47.87
2023-06-20T18:56:37.432Z,48.09
2023-06-20T18:59:04.785Z,48.43
2023-06-20T19:01:32.579Z,48.59
2023-06-20T19:04:00.023Z,48.75
2023-06-20T19:06:27.159Z,48.81
2023-06-20T19:08:54.331Z,49.13
2023-06-20T19:11:21.264Z,49.40
2023-06-20T19:13:48.196Z,49.59
2023-06-20T19:16:15.906Z,49.69
2023-06-20T19:18:43.206Z,49.92
2023-06-20T19:21:10.413Z,50.15
2023-06-20T19:23:37.717Z,50.36
2023-06-20T19:26:05.496Z,50.46
2023-06-20T19:28:32.546Z,50.54
2023-06-20T19:30:59.865Z,50.67
2023-06-20T19:33:27.131Z,50.70
2023-06-20T19:35:54.381Z,50.86
2023-06-20T19:38:21.529Z,50.99
2023-06-20T19:40:48.785Z,50.96
2023-06-20T19:43:15.722Z,51.21
2023-06-20T19:45:44.111Z,51.34
2023-06-20T19:48:12.598Z,51.39
2023-06-20T19:50:39.753Z,51.59
2023-06-20T19:53:07.009Z,51.72
2023-06-20T19:55:34.058Z,51.97
2023-06-20T19:58:03.450Z,52.13
2023-06-20T20:00:31.409Z,52.24
2023-06-20T20:02:58.541Z,52.36
2023-06-20T20:05:26.946Z,52.46
2023-06-20T20:07:53.812Z,52.63
2023-06-20T20:10:20.825Z,52.63
2023-06-20T20:12:47.765Z,52.66
2023-06-20T20:15:14.754Z,52.71
2023-06-20T20:17:44.350Z,52.71
2023-06-20T20:20:11.329Z,52.90
2023-06-20T20:22:39.948Z,52.96
2023-06-20T20:25:12.395Z,53.13
2023-06-20T20:27:41.023Z,53.26
2023-06-20T20:30:08.809Z,53.22
2023-06-20T20:32:36.420Z,53.45
2023-06-20T20:35:04.004Z,53.53
2023-06-20T20:37:31.033Z,53.65
2023-06-20T20:39:58.842Z,53.78
2023-06-20T20:42:25.783Z,53.81
2023-06-20T20:44:52.788Z,54.00
2023-06-20T20:47:19.670Z,54.03
2023-06-20T20:49:46.586Z,54.04
2023-06-20T20:52:13.527Z,54.16
2023-06-20T20:54:40.495Z,54.10
2023-06-20T20:57:07.836Z,54.16
2023-06-20T20:59:35.081Z,54.55
2023-06-20T21:02:02.629Z,54.84
2023-06-20T21:04:30.498Z,54.97
2023-06-20T21:06:57.654Z,54.94
2023-06-20T21:09:24.692Z,54.90
2023-06-20T21:11:51.840Z,54.69
2023-06-20T21:14:19.008Z,54.74
2023-06-20T21:16:46.438Z,55.05
2023-06-20T21:19:13.819Z,55.10
2023-06-20T21:21:41.202Z,55.22
2023-06-20T21:24:08.288Z,55.02
2023-06-20T21:26:35.364Z,55.09
2023-06-20T21:29:02.405Z,55.07
2023-06-20T21:31:29.990Z,55.06
2023-06-20T21:33:59.810Z,55.04
2023-06-20T21:36:29.484Z,54.90
2023-06-20T21:38:56.333Z,54.73
2023-06-20T21:41:24.911Z,54.54
2023-06-20T21:43:51.854Z,54.76
2023-06-20T21:46:20.979Z,54.99
2023-06-20T21:48:48.093Z,54.90
2023-06-20T21:51:15.112Z,54.96
2023-06-20T21:53:41.903Z,54.92
2023-06-20T21:56:08.852Z,54.88
2023-06-20T21:58:37.734Z,54.77
2023-06-20T22:01:05.181Z,54.87
2023-06-20T22:03:32.244Z,54.93
2023-06-20T22:05:59.276Z,55.00
2023-06-20T22:08:27.244Z,55.23
2023-06-20T22:11:00.153Z,55.43
2023-06-20T22:13:27.988Z,55.54
2023-06-20T22:15:55.360Z,55.54
2023-06-20T22:18:22.428Z,55.54
2023-06-20T22:20:49.820Z,55.65
2023-06-20T22:23:17.004Z,55.78
2023-06-20T22:25:43.839Z,55.91
2023-06-20T22:28:10.808Z,55.84
2023-06-20T22:30:38.068Z,55.92
2023-06-20T22:33:10.449Z,56.16
2023-06-20T22:35:37.601Z,56.31
2023-06-20T22:38:04.472Z,56.40
2023-06-20T22:40:31.665Z,56.32
2023-06-20T22:42:59.302Z,56.33
2023-06-20T22:45:26.462Z,56.10
2023-06-20T22:47:54.014Z,56.01
2023-06-20T22:50:23.115Z,55.83
2023-06-20T22:52:50.065Z,55.63
2023-06-20T22:55:17.729Z,55.65
2023-06-20T22:57:44.973Z,55.78
2023-06-20T23:00:12.795Z,55.71
2023-06-20T23:02:40.857Z,55.73
2023-06-20T23:05:08.671Z,55.83
2023-06-20T23:07:36.436Z,55.83
2023-06-20T23:10:03.852Z,55.86
2023-06-20T23:12:31.759Z,55.68
2023-06-20T23:14:59.212Z,55.64
2023-06-20T23:17:26.295Z,55.90
2023-06-20T23:19:53.432Z,55.64
2023-06-20T23:22:20.827Z,55.85
2023-06-20T23:24:47.829Z,55.71
2023-06-20T23:27:15.166Z,55.65
2023-06-20T23:29:44.974Z,55.69
2023-06-20T23:32:16.130Z,55.84
2023-06-20T23:34:43.678Z,55.87
2023-06-20T23:37:10.859Z,55.86
2023-06-20T23:39:37.796Z,55.62
2023-06-20T23:42:05.478Z,55.75
2023-06-20T23:44:35.967Z,55.88
2023-06-20T23:47:04.410Z,56.09
2023-06-20T23:49:31.397Z,56.03
2023-06-20T23:51:58.445Z,56.27
2023-06-20T23:54:26.410Z,56.37
2023-06-20T23:56:53.360Z,56.15
2023-06-20T23:59:20.405Z,56.19
